createdAt,value
2022-09-09T00:02:06.433Z,100121.00
2022-09-09T00:04:35.034Z,100127.47
2022-09-09T00:07:04.635Z,100123.06
2022-09-09T00:09:38.865Z,100122.31
2022-09-09T00:12:13.931Z,100120.94
2022-09-09T00:14:59.482Z,100128.97
2022-09-09T00:17:50.622Z,100130.97
2022-09-09T00:20:19.981Z,100126.44
2022-09-09T00:22:55.402Z,100123.13
2022-09-09T00:25:35.114Z,100121.38
2022-09-09T00:28:02.069Z,100117.66
2022-09-09T00:30:33.275Z,100117.72
2022-09-09T00:33:02.577Z,100120.34
2022-09-09T00:35:32.745Z,100114.50
2022-09-09T00:38:06.309Z,100115.69
2022-09-09T00:40:34.840Z,100104.63
2022-09-09T00:43:31.674Z,100108.03
2022-09-09T00:46:20.305Z,100104.50
2022-09-09T00:49:16.720Z,100095.84
2022-09-09T00:51:52.732Z,100089.25
2022-09-09T00:54:25.279Z,100096.59
2022-09-09T00:57:04.968Z,100097.50
2022-09-09T00:59:49.159Z,100092.69
2022-09-09T01:02:38.752Z,100093.88
2022-09-09T01:05:14.680Z,100097.91
2022-09-09T01:07:47.038Z,100099.47
2022-09-09T01:10:22.755Z,100102.22
2022-09-09T01:12:50.011Z,100091.09
2022-09-09T01:15:22.570Z,100092.28
2022-09-09T01:17:54.621Z,100094.19
2022-09-09T01:20:26.399Z,100095.91
2022-09-09T01:22:58.702Z,100101.47
2022-09-09T01:25:29.786Z,100099.94
2022-09-09T01:28:06.278Z,100111.03
2022-09-09T01:30:34.387Z,100113.13
2022-09-09T01:33:01.482Z,100113.13
2022-09-09T01:35:38.407Z,100117.47
2022-09-09T01:38:05.502Z,100118.97
2022-09-09T01:40:32.607Z,100110.88
2022-09-09T01:42:59.076Z,100112.50
2022-09-09T01:45:26.026Z,100118.22
2022-09-09T01:47:55.899Z,100109.66
2022-09-09T01:50:22.315Z,100105.44
2022-09-09T01:52:51.886Z,100107.00
2022-09-09T01:55:27.048Z,100110.69
2022-09-09T01:58:02.615Z,100115.97
2022-09-09T02:00:32.594Z,100108.22
2022-09-09T02:03:07.454Z,100104.94
2022-09-09T02:05:42.361Z,100106.28
2022-09-09T02:08:11.310Z,100110.75
2022-09-09T02:10:58.590Z,100112.09
2022-09-09T02:13:26.120Z,100110.88
2022-09-09T02:16:34.363Z,100111.16
2022-09-09T02:19:16.622Z,100116.09
2022-09-09T02:21:45.038Z,100113.25
2022-09-09T02:24:12.371Z,100120.69
2022-09-09T02:26:41.758Z,100114.75
2022-09-09T02:29:19.966Z,100116.00
2022-09-09T02:31:48.349Z,100111.59
2022-09-09T02:34:15.456Z,100108.47
2022-09-09T02:36:42.697Z,100114.88
2022-09-09T02:39:09.808Z,100113.75
2022-09-09T02:41:38.211Z,100118.16
2022-09-09T02:44:17.873Z,100114.00
2022-09-09T02:46:59.514Z,100113.13
2022-09-09T02:49:32.574Z,100118.22
2022-09-09T02:52:03.699Z,100116.97
2022-09-09T02:54:33.386Z,100118.84
2022-09-09T02:57:07.063Z,100116.38
2022-09-09T02:59:33.574Z,100122.88
2022-09-09T03:02:00.034Z,100119.41
2022-09-09T03:04:26.517Z,100116.81
2022-09-09T03:06:53.003Z,100121.59
2022-09-09T03:09:19.368Z,100123.91
2022-09-09T03:11:45.810Z,100125.19
2022-09-09T03:14:12.283Z,100126.66
2022-09-09T03:16:38.966Z,100130.56
2022-09-09T03:19:05.480Z,100116.91
2022-09-09T03:21:33.996Z,100113.50
2022-09-09T03:24:00.845Z,100114.63
2022-09-09T03:26:27.203Z,100119.59
2022-09-09T03:28:54.608Z,100111.47
2022-09-09T03:31:31.235Z,100110.06
2022-09-09T03:34:00.874Z,100103.44
2022-09-09T03:36:27.859Z,100111.94
2022-09-09T03:38:55.538Z,100111.16
2022-09-09T03:41:25.862Z,100110.22
2022-09-09T03:43:52.506Z,100113.25
2022-09-09T03:46:19.890Z,100100.59
2022-09-09T03:48:46.494Z,100095.41
2022-09-09T03:51:13.012Z,100104.03
2022-09-09T03:53:40.911Z,100110.34
2022-09-09T03:56:08.187Z,100100.34
2022-09-09T03:58:35.603Z,100097.94
2022-09-09T04:01:09.059Z,100099.00
2022-09-09T04:07:16.858Z,100105.31
2022-09-09T04:09:43.301Z,100102.53
2022-09-09T04:12:09.830Z,100105.88
2022-09-09T04:14:36.383Z,100103.84
2022-09-09T04:17:07.045Z,100104.13
2022-09-09T04:19:33.927Z,100111.06
2022-09-09T04:22:00.353Z,100108.59
2022-09-09T04:24:30.039Z,100106.81
2022-09-09T04:26:56.568Z,100107.97
2022-09-09T04:29:23.147Z,100109.63
2022-09-09T04:31:49.603Z,100113.25
2022-09-09T04:34:16.006Z,100102.97
2022-09-09T04:36:42.468Z,100112.13
2022-09-09T04:39:08.858Z,100103.88
2022-09-09T04:41:36.544Z,100105.56
2022-09-09T04:44:03.687Z,100113.13
2022-09-09T04:46:30.254Z,100104.44
2022-09-09T04:48:56.821Z,100101.19
2022-09-09T04:51:23.416Z,100105.03
2022-09-09T04:53:51.617Z,100099.53
2022-09-09T04:56:19.229Z,100100.31
2022-09-09T04:58:46.459Z,100100.63
2022-09-09T05:01:15.367Z,100091.94
2022-09-09T05:03:41.834Z,100099.00
2022-09-09T05:06:10.663Z,100101.06
2022-09-09T05:08:41.137Z,100094.25
2022-09-09T05:11:21.562Z,100091.41
2022-09-09T05:13:48.362Z,100101.06
2022-09-09T05:16:15.286Z,100108.03
2022-09-09T05:18:44.034Z,100108.59
2022-09-09T05:21:11.588Z,100102.16
2022-09-09T05:23:38.707Z,100105.53
2022-09-09T05:26:06.550Z,100107.91
2022-09-09T05:28:35.924Z,100100.56
2022-09-09T05:31:12.466Z,100104.22
2022-09-09T05:33:41.591Z,100105.03
2022-09-09T05:36:09.448Z,100105.09
2022-09-09T05:38:36.826Z,100102.63
2022-09-09T05:41:03.711Z,100102.69
2022-09-09T05:43:30.352Z,100096.94
2022-09-09T05:46:05.187Z,100107.16
2022-09-09T05:48:33.024Z,100102.84
2022-09-09T05:51:00.251Z,100106.31
2022-09-09T05:53:27.598Z,100104.06
2022-09-09T05:56:04.430Z,100107.50
2022-09-09T05:58:34.067Z,100102.47
2022-09-09T06:01:04.463Z,100105.56
2022-09-09T06:03:30.958Z,100103.44
2022-09-09T06:06:02.294Z,100099.84
2022-09-09T06:08:29.129Z,100099.78
2022-09-09T06:11:03.445Z,100097.19
2022-09-09T06:13:30.669Z,100099.59
2022-09-09T06:15:57.390Z,100099.84
2022-09-09T06:18:23.853Z,100099.50
2022-09-09T06:20:58.182Z,100098.19
2022-09-09T06:23:25.651Z,100107.97
2022-09-09T06:25:52.556Z,100103.47
2022-09-09T06:28:20.009Z,100105.00
2022-09-09T06:30:46.415Z,100094.84
2022-09-09T06:33:12.811Z,100111.13
2022-09-09T06:35:39.289Z,100099.28
2022-09-09T06:38:06.691Z,100102.75
2022-09-09T06:40:33.093Z,100101.13
2022-09-09T06:43:03.357Z,100106.19
2022-09-09T06:45:29.839Z,100106.56
2022-09-09T06:47:57.532Z,100107.38
2022-09-09T06:50:24.020Z,100115.34
2022-09-09T06:52:50.515Z,100106.25
2022-09-09T06:55:18.526Z,100107.34
2022-09-09T06:57:44.903Z,100103.97
2022-09-09T07:00:13.030Z,100103.03
2022-09-09T07:02:40.637Z,100104.47
2022-09-09T07:05:07.482Z,100106.03
2022-09-09T07:07:33.865Z,100108.16
2022-09-09T07:10:00.227Z,100109.13
2022-09-09T07:12:26.591Z,100108.28
2022-09-09T07:14:52.965Z,100108.34
2022-09-09T07:17:19.368Z,100105.50
2022-09-09T07:19:45.729Z,100109.69
2022-09-09T07:22:12.188Z,100111.09
2022-09-09T07:24:38.676Z,100113.16
2022-09-09T07:27:05.307Z,100115.50
2022-09-09T07:29:31.846Z,100119.31
2022-09-09T07:31:59.351Z,100114.81
2022-09-09T07:34:25.909Z,100117.66
2022-09-09T07:36:52.511Z,100115.88
2022-09-09T07:39:19.125Z,100118.72
2022-09-09T07:41:47.669Z,100117.25
2022-09-09T07:44:20.190Z,100119.81
2022-09-09T07:54:24.308Z,100110.06
2022-09-09T07:56:51.825Z,100109.09
2022-09-09T07:59:18.529Z,100115.75
2022-09-09T08:01:47.520Z,100110.88
2022-09-09T08:04:16.557Z,100110.25
2022-09-09T08:06:45.300Z,100114.56
2022-09-09T08:09:11.952Z,100114.16
2022-09-09T08:11:39.688Z,100109.19
2022-09-09T08:14:08.598Z,100116.75
2022-09-09T08:16:38.434Z,100106.97
2022-09-09T08:19:06.500Z,100111.16
2022-09-09T08:21:34.109Z,100109.41
2022-09-09T08:24:02.309Z,100102.56
2022-09-09T08:26:35.309Z,100107.19
2022-09-09T08:29:03.317Z,100115.78
2022-09-09T08:31:35.435Z,100115.03
2022-09-09T08:34:03.662Z,100117.84
2022-09-09T08:36:34.029Z,100109.38
2022-09-09T08:39:01.288Z,100108.03
2022-09-09T08:41:33.898Z,100110.88
2022-09-09T08:44:23.298Z,100109.91
2022-09-09T08:46:57.638Z,100111.03
2022-09-09T08:49:47.723Z,100110.66
2022-09-09T08:52:19.657Z,100110.31
2022-09-09T08:54:52.533Z,100121.94
2022-09-09T08:57:22.735Z,100110.53
2022-09-09T08:59:51.677Z,100113.06
2022-09-09T09:02:37.910Z,100118.09
2022-09-09T09:05:20.003Z,100116.94
2022-09-09T09:08:05.394Z,100114.41
2022-09-09T09:10:54.504Z,100112.84
2022-09-09T09:13:50.215Z,100107.91
2022-09-09T09:16:26.558Z,100115.88
2022-09-09T09:19:29.468Z,100119.34
2022-09-09T09:22:22.103Z,100120.63
2022-09-09T09:25:07.079Z,100121.13
2022-09-09T09:27:41.807Z,100121.59
2022-09-09T09:30:28.594Z,100112.84
2022-09-09T09:33:22.465Z,100111.16
2022-09-09T09:35:51.670Z,100105.69
2022-09-09T09:41:12.832Z,100092.97
2022-09-09T09:43:41.695Z,100098.94
2022-09-09T09:46:21.723Z,100111.72
2022-09-09T09:48:57.934Z,100097.66
2022-09-09T09:51:24.702Z,100092.78
2022-09-09T09:53:53.716Z,100101.59
2022-09-09T09:56:28.151Z,100097.13
2022-09-09T09:58:55.414Z,100104.69
2022-09-09T10:01:24.830Z,100107.22
2022-09-09T10:03:53.327Z,100111.47
2022-09-09T10:06:31.123Z,100105.16
2022-09-09T10:08:57.581Z,100106.84
2022-09-09T10:11:39.057Z,100104.25
2022-09-09T10:14:26.528Z,100103.25
2022-09-09T10:17:05.402Z,100096.75
2022-09-09T10:19:36.997Z,100098.25
2022-09-09T10:22:10.977Z,100089.59
2022-09-09T10:25:09.490Z,100094.00
2022-09-09T10:27:57.058Z,100106.13
2022-09-09T10:30:58.106Z,100104.41
2022-09-09T10:33:42.431Z,100122.13
2022-09-09T10:36:09.459Z,100106.13
2022-09-09T10:38:46.484Z,100101.66
2022-09-09T10:41:41.288Z,100094.44
2022-09-09T10:44:35.582Z,100076.88
2022-09-09T10:47:29.270Z,100084.19
2022-09-09T10:50:17.034Z,100085.53
2022-09-09T10:53:10.279Z,100082.59
2022-09-09T10:55:41.596Z,100080.72
2022-09-09T10:58:16.822Z,100078.66
2022-09-09T11:00:46.842Z,100074.78
2022-09-09T11:03:27.967Z,100077.16
2022-09-09T11:06:02.045Z,100079.31
2022-09-09T11:08:30.495Z,100084.38
2022-09-09T11:11:18.756Z,100082.88
2022-09-09T11:14:10.228Z,100079.19
2022-09-09T11:16:57.718Z,100071.19
2022-09-09T11:19:38.957Z,100069.94
2022-09-09T11:22:17.668Z,100080.03
2022-09-09T11:24:55.527Z,100080.72
2022-09-09T11:27:27.634Z,100084.81
2022-09-09T11:30:01.941Z,100077.22
2022-09-09T11:33:05.195Z,100075.81
2022-09-09T11:35:50.505Z,100063.84
2022-09-09T11:38:19.966Z,100064.81
2022-09-09T11:40:47.611Z,100059.75
2022-09-09T11:43:25.232Z,100066.47
2022-09-09T11:45:58.683Z,100064.53
2022-09-09T11:48:32.821Z,100065.00
2022-09-09T11:51:01.252Z,100062.44
2022-09-09T11:53:28.445Z,100065.75
2022-09-09T11:56:02.843Z,100058.56
2022-09-09T11:58:33.569Z,100055.97
2022-09-09T12:01:00.690Z,100051.56
2022-09-09T12:03:47.511Z,100043.31
2022-09-09T12:06:34.494Z,100052.13
2022-09-09T12:09:24.699Z,100046.34
2022-09-09T12:11:51.689Z,100046.16
2022-09-09T12:14:36.503Z,100056.19
2022-09-09T12:17:23.594Z,100053.63
2022-09-09T12:20:22.318Z,100054.22
2022-09-09T12:23:20.232Z,100062.19
2022-09-09T12:25:46.578Z,100059.97
2022-09-09T12:28:24.645Z,100061.59
2022-09-09T12:30:57.848Z,100070.09
2022-09-09T12:33:25.732Z,100071.75
2022-09-09T12:35:56.829Z,100071.72
2022-09-09T12:38:33.477Z,100078.31
2022-09-09T12:41:01.438Z,100081.25
2022-09-09T12:43:29.084Z,100091.72
2022-09-09T12:46:02.329Z,100093.59
2022-09-09T12:48:34.122Z,100095.00
2022-09-09T12:51:01.453Z,100091.50
2022-09-09T12:53:31.628Z,100099.38
2022-09-09T12:56:00.651Z,100098.03
2022-09-09T12:58:29.471Z,100103.50
2022-09-09T13:00:57.450Z,100101.53
2022-09-09T13:03:25.815Z,100095.44
2022-09-09T13:05:53.287Z,100089.13
2022-09-09T13:08:21.384Z,100079.69
2022-09-09T13:11:01.871Z,100078.19
2022-09-09T13:13:34.079Z,100082.59
2022-09-09T13:16:01.950Z,100083.47
2022-09-09T13:18:39.079Z,100088.06
2022-09-09T13:21:05.664Z,100086.19
2022-09-09T13:23:36.032Z,100086.41
2022-09-09T13:26:19.940Z,100077.72
2022-09-09T13:28:47.414Z,100067.47
2022-09-09T13:31:43.799Z,100064.06
2022-09-09T13:34:15.290Z,100065.56
2022-09-09T13:36:42.505Z,100055.91
2022-09-09T13:39:53.135Z,100043.94
2022-09-09T13:42:30.770Z,100055.81
2022-09-09T13:44:58.919Z,100048.06
2022-09-09T13:47:48.534Z,100055.38
2022-09-09T13:50:29.270Z,100054.19
2022-09-09T13:52:59.845Z,100051.63
2022-09-09T13:55:28.084Z,100045.13
2022-09-09T13:57:58.825Z,100051.19
2022-09-09T14:00:26.407Z,100056.63
2022-09-09T14:02:54.232Z,100049.69
2022-09-09T14:05:20.728Z,100050.78
2022-09-09T14:07:51.249Z,100048.25
2022-09-09T14:10:51.645Z,100053.59
2022-09-09T14:13:18.098Z,100050.75
2022-09-09T14:15:44.633Z,100055.69
2022-09-09T14:18:14.148Z,100071.31
2022-09-09T14:20:40.568Z,100069.97
2022-09-09T14:23:07.775Z,100085.25
2022-09-09T14:25:34.525Z,100092.44
2022-09-09T14:28:01.354Z,100087.59
2022-09-09T14:30:27.963Z,100093.69
2022-09-09T14:32:54.364Z,100091.50
2022-09-09T14:35:20.857Z,100076.34
2022-09-09T14:37:47.707Z,100066.66
2022-09-09T14:41:14.036Z,100069.41
2022-09-09T14:43:40.640Z,100060.19
2022-09-09T14:46:12.551Z,100060.69
2022-09-09T14:48:41.437Z,100057.59
2022-09-09T14:51:16.685Z,100065.16
2022-09-09T14:53:48.755Z,100054.00
2022-09-09T14:56:37.569Z,100068.59
2022-09-09T14:59:09.108Z,100055.84
2022-09-09T15:01:35.619Z,100047.88
2022-09-09T15:04:04.775Z,100049.34
2022-09-09T15:06:34.157Z,100056.84
2022-09-09T15:09:01.416Z,100055.91
2022-09-09T15:11:31.403Z,100065.38
2022-09-09T15:13:58.005Z,100065.00
2022-09-09T15:16:27.621Z,100067.41
2022-09-09T15:18:56.834Z,100064.16
2022-09-09T15:21:25.350Z,100072.81
2022-09-09T15:23:52.278Z,100063.25
2022-09-09T15:27:03.469Z,100065.22
2022-09-09T15:29:29.918Z,100061.41
2022-09-09T15:31:56.433Z,100060.53
2022-09-09T15:34:23.030Z,100069.53
2022-09-09T15:36:49.476Z,100063.44
2022-09-09T15:39:17.704Z,100062.53
2022-09-09T15:41:45.015Z,100064.19
2022-09-09T15:44:45.793Z,100068.19
2022-09-09T15:47:14.151Z,100082.06
2022-09-09T15:49:40.631Z,100102.50
2022-09-09T15:52:08.130Z,100160.06
2022-09-09T15:54:36.573Z,100185.91
2022-09-09T15:57:06.429Z,100175.88
2022-09-09T15:59:34.338Z,100167.81
2022-09-09T16:02:01.092Z,100176.69
2022-09-09T16:04:28.749Z,100177.56
2022-09-09T16:06:59.366Z,100173.41
2022-09-09T16:13:14.425Z,100175.44
2022-09-09T16:16:01.400Z,100164.47
2022-09-09T16:18:27.803Z,100165.63
2022-09-09T16:20:55.729Z,100168.03
2022-09-09T16:23:22.113Z,100159.66
2022-09-09T16:25:58.334Z,100152.09
2022-09-09T16:28:27.257Z,100152.53
2022-09-09T16:30:54.271Z,100148.94
2022-09-09T16:33:20.765Z,100144.75
2022-09-09T16:35:47.309Z,100150.38
2022-09-09T16:38:13.775Z,100150.63
2022-09-09T16:40:42.182Z,100154.19
2022-09-09T16:43:10.052Z,100146.81
2022-09-09T16:45:46.146Z,100149.84
2022-09-09T16:48:13.531Z,100139.94
2022-09-09T16:50:40.311Z,100138.84
2022-09-09T16:53:09.828Z,100136.72
2022-09-09T16:55:41.807Z,100137.88
2022-09-09T16:58:11.730Z,100144.13
2022-09-09T17:00:38.332Z,100137.31
2022-09-09T17:03:04.909Z,100143.09
2022-09-09T17:05:31.545Z,100143.84
2022-09-09T17:08:03.539Z,100143.59
2022-09-09T17:10:30.170Z,100148.25
2022-09-09T17:13:04.440Z,100153.16
2022-09-09T17:15:31.730Z,100157.88
2022-09-09T17:18:01.010Z,100158.78
2022-09-09T17:20:27.547Z,100155.72
2022-09-09T17:23:18.618Z,100154.09
2022-09-09T17:25:46.166Z,100148.81
2022-09-09T17:28:13.230Z,100145.41
2022-09-09T17:30:39.841Z,100143.84
2022-09-09T17:33:09.359Z,100147.78
2022-09-09T17:35:35.964Z,100149.88
2022-09-09T17:38:02.499Z,100150.41
2022-09-09T17:40:32.240Z,100152.84
2022-09-09T17:43:00.268Z,100150.75
2022-09-09T17:45:26.792Z,100157.03
2022-09-09T17:47:55.422Z,100158.50
2022-09-09T17:50:22.973Z,100149.34
2022-09-09T17:52:49.831Z,100150.22
2022-09-09T17:55:18.315Z,100149.16
2022-09-09T17:57:47.395Z,100145.19
2022-09-09T18:00:14.061Z,100149.91
2022-09-09T18:02:40.877Z,100154.81
2022-09-09T18:05:13.493Z,100156.66
2022-09-09T18:07:39.991Z,100164.59
2022-09-09T18:10:06.825Z,100162.47
2022-09-09T18:12:33.283Z,100165.25
2022-09-09T18:15:03.780Z,100173.88
2022-09-09T18:17:30.665Z,100173.59
2022-09-09T18:19:57.160Z,100178.06
2022-09-09T18:22:23.627Z,100172.91
2022-09-09T18:24:50.307Z,100168.72
2022-09-09T18:27:16.830Z,100170.31
2022-09-09T18:29:43.309Z,100178.19
2022-09-09T18:32:14.990Z,100188.34
2022-09-09T18:34:47.819Z,100186.50
2022-09-09T18:37:15.223Z,100183.28
2022-09-09T18:39:41.736Z,100189.53
2022-09-09T18:42:08.439Z,100192.22
2022-09-09T18:44:45.708Z,100196.47
2022-09-09T18:47:25.435Z,100199.28
2022-09-09T18:50:03.921Z,100193.13
2022-09-09T18:52:42.053Z,100188.78
2022-09-09T18:55:23.915Z,100191.00
2022-09-09T18:57:50.957Z,100179.78
2022-09-09T19:00:17.424Z,100186.31
2022-09-09T19:02:52.045Z,100195.16
2022-09-09T19:08:37.077Z,100193.44
2022-09-09T19:11:56.533Z,100195.81
2022-09-09T19:14:24.467Z,100201.69
2022-09-09T19:16:51.800Z,100200.91
2022-09-09T19:19:30.220Z,100206.47
2022-09-09T19:22:17.531Z,100204.16
2022-09-09T19:24:50.169Z,100214.88
2022-09-09T19:27:20.473Z,100212.06
2022-09-09T19:29:48.308Z,100208.84
2022-09-09T19:32:52.226Z,100212.94
2022-09-09T19:35:01.990Z,100217.81
2022-09-09T19:37:28.488Z,100218.66
2022-09-09T19:40:04.257Z,100215.00
2022-09-09T19:42:55.343Z,100212.69
2022-09-09T19:45:21.950Z,100217.94
2022-09-09T19:48:16.864Z,100211.84
2022-09-09T19:50:44.302Z,100209.44
2022-09-09T19:53:10.750Z,100221.09
2022-09-09T19:55:39.761Z,100217.47
2022-09-09T19:58:06.430Z,100220.16
2022-09-09T20:00:39.410Z,100231.22
2022-09-09T20:03:19.119Z,100222.69
2022-09-09T20:08:53.937Z,100226.78
2022-09-09T20:11:26.327Z,100226.25
2022-09-09T20:13:54.359Z,100224.75
2022-09-09T20:16:30.159Z,100221.59
2022-09-09T20:18:58.820Z,100226.25
2022-09-09T20:21:36.638Z,100226.25
2022-09-09T20:24:06.048Z,100229.41
2022-09-09T20:26:35.028Z,100233.00
2022-09-09T20:29:07.872Z,100237.72
2022-09-09T20:31:40.178Z,100240.53
2022-09-09T20:34:09.811Z,100239.44
2022-09-09T20:36:38.950Z,100242.94
2022-09-09T20:39:08.537Z,100245.47
2022-09-09T20:41:36.975Z,100253.16
2022-09-09T20:44:09.382Z,100244.81
2022-09-09T20:46:38.175Z,100245.56
2022-09-09T20:49:06.627Z,100247.13
2022-09-09T20:51:40.172Z,100244.63
2022-09-09T20:54:10.822Z,100249.72
2022-09-09T20:56:40.808Z,100246.91
2022-09-09T20:59:12.640Z,100246.25
2022-09-09T21:01:40.026Z,100243.47
2022-09-09T21:04:08.216Z,100240.25
2022-09-09T21:06:34.711Z,100242.22
2022-09-09T21:09:01.272Z,100236.13
2022-09-09T21:11:27.742Z,100242.75
2022-09-09T21:13:54.446Z,100246.34
2022-09-09T21:16:21.446Z,100246.25
2022-09-09T21:18:49.253Z,100242.75
2022-09-09T21:21:16.822Z,100246.56
2022-09-09T21:23:43.576Z,100246.34
2022-09-09T21:26:10.112Z,100246.41
2022-09-09T21:28:37.680Z,100254.69
2022-09-09T21:31:05.722Z,100252.63
2022-09-09T21:33:34.318Z,100257.69
2022-09-09T21:36:06.970Z,100258.03
2022-09-09T21:38:34.430Z,100261.75
2022-09-09T21:41:05.500Z,100259.63
2022-09-09T21:43:32.591Z,100261.38
2022-09-09T21:45:59.567Z,100261.16
2022-09-09T21:48:26.259Z,100261.09
2022-09-09T21:50:53.277Z,100262.34
2022-09-09T21:53:29.113Z,100262.47
2022-09-09T21:56:14.232Z,100265.75
2022-09-09T21:58:48.051Z,100264.31
2022-09-09T22:01:32.084Z,100273.56
2022-09-09T22:04:01.320Z,100270.16
2022-09-09T22:06:30.799Z,100272.09
2022-09-09T22:08:59.117Z,100272.84
2022-09-09T22:14:10.828Z,100266.44
2022-09-09T22:16:37.686Z,100274.16
2022-09-09T22:19:04.324Z,100270.66
2022-09-09T22:21:35.057Z,100268.19
2022-09-09T22:24:12.886Z,100270.41
2022-09-09T22:26:39.723Z,100267.72
2022-09-09T22:29:07.644Z,100263.19
2022-09-09T22:31:34.991Z,100255.38
2022-09-09T22:34:02.232Z,100261.41
2022-09-09T22:36:28.903Z,100259.28
2022-09-09T22:39:04.083Z,100267.38
2022-09-09T22:41:31.986Z,100265.25
2022-09-09T22:43:59.290Z,100272.22
2022-09-09T22:46:26.067Z,100259.53
2022-09-09T22:48:52.861Z,100261.47
2022-09-09T22:51:39.039Z,100263.34
2022-09-09T22:54:05.990Z,100253.44
2022-09-09T22:56:32.944Z,100260.34
2022-09-09T22:58:59.663Z,100265.19
2022-09-09T23:01:27.468Z,100261.38
2022-09-09T23:03:59.206Z,100265.47
2022-09-09T23:06:27.299Z,100263.16
2022-09-09T23:08:59.635Z,100266.28
2022-09-09T23:11:58.719Z,100278.22
2022-09-09T23:14:25.250Z,100268.25
2022-09-09T23:16:52.673Z,100278.00
2022-09-09T23:19:19.926Z,100280.94
2022-09-09T23:21:47.074Z,100269.72
2022-09-09T23:24:15.947Z,100277.81
2022-09-09T23:26:44.920Z,100275.63
2022-09-09T23:29:15.016Z,100282.91
2022-09-09T23:31:45.903Z,100279.56
2022-09-09T23:34:13.155Z,100284.44
2022-09-09T23:36:40.272Z,100281.97
2022-09-09T23:39:07.737Z,100287.38
2022-09-09T23:41:35.942Z,100279.44
2022-09-09T23:44:03.744Z,100286.31
2022-09-09T23:46:31.568Z,100286.31
2022-09-09T23:48:59.528Z,100284.19
2022-09-09T23:51:31.049Z,100280.63
2022-09-09T23:54:01.696Z,100277.13
2022-09-09T23:56:31.736Z,100274.97
2022-09-09T23:58:58.291Z,100280.69
